sensor_id;sensor_type;location;lat;lon;timestamp;temperature;humidity
37446;DHT22;23307;51.136;14.942;2023-05-19T00:01:34;12.40;98.70
37446;DHT22;23307;51.136;14.942;2023-05-19T00:04:02;12.40;99.00
37446;DHT22;23307;51.136;14.942;2023-05-19T00:06:31;12.40;99.30
37446;DHT22;23307;51.136;14.942;2023-05-19T00:08:59;12.30;99.80
37446;DHT22;23307;51.136;14.942;2023-05-19T00:11:26;12.30;99.90
37446;DHT22;23307;51.136;14.942;2023-05-19T00:13:53;12.30;99.90
37446;DHT22;23307;51.136;14.942;2023-05-19T00:16:19;12.30;99.90
37446;DHT22;23307;51.136;14.942;2023-05-19T00:18:45;12.30;99.90
37446;DHT22;23307;51.136;14.942;2023-05-19T00:21:12;12.30;99.90
37446;DHT22;23307;51.136;14.942;2023-05-19T00:23:38;12.30;99.90
37446;DHT22;23307;51.136;14.942;2023-05-19T00:26:03;12.30;99.90
37446;DHT22;23307;51.136;14.942;2023-05-19T00:28:29;12.30;99.90
37446;DHT22;23307;51.136;14.942;2023-05-19T00:30:55;12.30;99.90
37446;DHT22;23307;51.136;14.942;2023-05-19T00:33:21;12.30;99.90
37446;DHT22;23307;51.136;14.942;2023-05-19T00:35:46;12.30;99.90
37446;DHT22;23307;51.136;14.942;2023-05-19T00:38:12;12.30;99.90
37446;DHT22;23307;51.136;14.942;2023-05-19T00:40:37;12.20;99.90
37446;DHT22;23307;51.136;14.942;2023-05-19T00:43:03;12.20;99.90
37446;DHT22;23307;51.136;14.942;2023-05-19T00:45:30;12.10;99.90
37446;DHT22;23307;51.136;14.942;2023-05-19T00:47:55;12.00;99.90
37446;DHT22;23307;51.136;14.942;2023-05-19T00:50:21;11.90;99.90
37446;DHT22;23307;51.136;14.942;2023-05-19T00:52:49;11.90;99.90
37446;DHT22;23307;51.136;14.942;2023-05-19T00:55:14;11.90;99.90
37446;DHT22;23307;51.136;14.942;2023-05-19T00:57:41;11.80;99.90
37446;DHT22;23307;51.136;14.942;2023-05-19T01:00:07;11.80;99.90
37446;DHT22;23307;51.136;14.942;2023-05-19T01:02:35;11.80;99.90
37446;DHT22;23307;51.136;14.942;2023-05-19T01:05:02;11.70;99.90
37446;DHT22;23307;51.136;14.942;2023-05-19T01:07:28;11.70;99.90
37446;DHT22;23307;51.136;14.942;2023-05-19T01:09:54;11.70;99.90
37446;DHT22;23307;51.136;14.942;2023-05-19T01:12:21;11.60;99.90
37446;DHT22;23307;51.136;14.942;2023-05-19T01:14:46;11.60;99.90
37446;DHT22;23307;51.136;14.942;2023-05-19T01:17:20;11.60;99.90
37446;DHT22;23307;51.136;14.942;2023-05-19T01:19:56;11.60;99.90
37446;DHT22;23307;51.136;14.942;2023-05-19T01:22:50;11.70;99.90
37446;DHT22;23307;51.136;14.942;2023-05-19T01:30:54;11.60;99.90
37446;DHT22;23307;51.136;14.942;2023-05-19T01:33:21;11.50;99.90
37446;DHT22;23307;51.136;14.942;2023-05-19T01:35:48;11.50;99.90
37446;DHT22;23307;51.136;14.942;2023-05-19T01:38:16;11.50;99.90
37446;DHT22;23307;51.136;14.942;2023-05-19T01:40:44;11.50;99.90
37446;DHT22;23307;51.136;14.942;2023-05-19T01:43:18;11.50;99.90
37446;DHT22;23307;51.136;14.942;2023-05-19T01:45:44;11.50;99.90
37446;DHT22;23307;51.136;14.942;2023-05-19T01:48:11;11.50;99.90
37446;DHT22;23307;51.136;14.942;2023-05-19T01:50:38;11.40;99.90
37446;DHT22;23307;51.136;14.942;2023-05-19T01:53:03;11.40;99.90
37446;DHT22;23307;51.136;14.942;2023-05-19T01:55:29;11.40;99.90
37446;DHT22;23307;51.136;14.942;2023-05-19T01:58:05;11.30;99.90
37446;DHT22;23307;51.136;14.942;2023-05-19T02:00:46;11.30;99.90
37446;DHT22;23307;51.136;14.942;2023-05-19T02:06:07;11.20;99.90
37446;DHT22;23307;51.136;14.942;2023-05-19T02:12:17;11.30;99.90
37446;DHT22;23307;51.136;14.942;2023-05-19T02:17:22;11.30;99.90
37446;DHT22;23307;51.136;14.942;2023-05-19T02:19:50;11.30;99.90
37446;DHT22;23307;51.136;14.942;2023-05-19T02:22:15;11.30;99.90
37446;DHT22;23307;51.136;14.942;2023-05-19T02:24:41;11.30;99.90
37446;DHT22;23307;51.136;14.942;2023-05-19T02:27:08;11.30;99.90
37446;DHT22;23307;51.136;14.942;2023-05-19T02:29:34;11.30;99.90
37446;DHT22;23307;51.136;14.942;2023-05-19T02:32:00;11.30;99.90
37446;DHT22;23307;51.136;14.942;2023-05-19T02:34:26;11.20;99.90
37446;DHT22;23307;51.136;14.942;2023-05-19T02:36:51;11.20;99.90
37446;DHT22;23307;51.136;14.942;2023-05-19T02:39:17;11.20;99.90
37446;DHT22;23307;51.136;14.942;2023-05-19T02:41:43;11.20;99.90
37446;DHT22;23307;51.136;14.942;2023-05-19T02:44:08;11.30;99.90
37446;DHT22;23307;51.136;14.942;2023-05-19T02:46:34;11.20;99.90
37446;DHT22;23307;51.136;14.942;2023-05-19T02:51:28;11.20;99.90
37446;DHT22;23307;51.136;14.942;2023-05-19T02:53:53;11.10;99.90
37446;DHT22;23307;51.136;14.942;2023-05-19T02:56:19;11.10;99.90
37446;DHT22;23307;51.136;14.942;2023-05-19T02:58:45;11.00;99.90
37446;DHT22;23307;51.136;14.942;2023-05-19T03:01:11;11.00;99.90
37446;DHT22;23307;51.136;14.942;2023-05-19T03:03:36;11.00;99.90
37446;DHT22;23307;51.136;14.942;2023-05-19T03:06:02;11.00;99.90
37446;DHT22;23307;51.136;14.942;2023-05-19T03:08:27;11.00;99.90
37446;DHT22;23307;51.136;14.942;2023-05-19T03:10:53;11.00;99.90
37446;DHT22;23307;51.136;14.942;2023-05-19T03:13:18;11.00;99.90
37446;DHT22;23307;51.136;14.942;2023-05-19T03:15:44;11.10;99.90
37446;DHT22;23307;51.136;14.942;2023-05-19T03:18:09;11.10;99.90
37446;DHT22;23307;51.136;14.942;2023-05-19T03:20:36;11.10;99.90
37446;DHT22;23307;51.136;14.942;2023-05-19T03:23:02;11.10;99.90
37446;DHT22;23307;51.136;14.942;2023-05-19T03:25:28;11.10;99.90
37446;DHT22;23307;51.136;14.942;2023-05-19T03:27:54;11.10;99.90
37446;DHT22;23307;51.136;14.942;2023-05-19T03:30:19;11.10;99.90
37446;DHT22;23307;51.136;14.942;2023-05-19T03:32:45;11.10;99.90
37446;DHT22;23307;51.136;14.942;2023-05-19T03:35:10;11.10;99.90
37446;DHT22;23307;51.136;14.942;2023-05-19T03:37:36;11.10;99.90
37446;DHT22;23307;51.136;14.942;2023-05-19T03:40:01;11.10;99.90
37446;DHT22;23307;51.136;14.942;2023-05-19T03:42:29;11.10;99.90
37446;DHT22;23307;51.136;14.942;2023-05-19T03:44:54;11.10;99.90
37446;DHT22;23307;51.136;14.942;2023-05-19T03:47:20;11.10;99.90
37446;DHT22;23307;51.136;14.942;2023-05-19T03:49:45;11.20;99.90
37446;DHT22;23307;51.136;14.942;2023-05-19T03:52:11;11.20;99.90
37446;DHT22;23307;51.136;14.942;2023-05-19T03:54:37;11.20;99.90
37446;DHT22;23307;51.136;14.942;2023-05-19T03:57:04;11.20;99.90
37446;DHT22;23307;51.136;14.942;2023-05-19T03:59:30;11.20;99.90
37446;DHT22;23307;51.136;14.942;2023-05-19T04:01:55;11.10;99.90
37446;DHT22;23307;51.136;14.942;2023-05-19T04:04:22;11.20;99.90
37446;DHT22;23307;51.136;14.942;2023-05-19T04:06:47;11.20;99.90
37446;DHT22;23307;51.136;14.942;2023-05-19T04:09:14;11.20;99.90
37446;DHT22;23307;51.136;14.942;2023-05-19T04:11:41;11.20;99.90
37446;DHT22;23307;51.136;14.942;2023-05-19T04:14:07;11.20;99.90
37446;DHT22;23307;51.136;14.942;2023-05-19T04:16:33;11.20;99.90
37446;DHT22;23307;51.136;14.942;2023-05-19T04:18:59;11.30;99.90
37446;DHT22;23307;51.136;14.942;2023-05-19T04:21:24;11.30;99.90
37446;DHT22;23307;51.136;14.942;2023-05-19T04:23:50;11.30;99.90
37446;DHT22;23307;51.136;14.942;2023-05-19T04:26:15;11.30;99.90
37446;DHT22;23307;51.136;14.942;2023-05-19T04:28:42;11.30;99.90
37446;DHT22;23307;51.136;14.942;2023-05-19T04:31:09;11.40;99.90
37446;DHT22;23307;51.136;14.942;2023-05-19T04:33:38;11.40;99.90
37446;DHT22;23307;51.136;14.942;2023-05-19T04:36:07;11.40;99.90
37446;DHT22;23307;51.136;14.942;2023-05-19T04:38:35;11.50;99.90
37446;DHT22;23307;51.136;14.942;2023-05-19T04:41:01;11.50;99.90
37446;DHT22;23307;51.136;14.942;2023-05-19T04:43:27;11.60;99.90
37446;DHT22;23307;51.136;14.942;2023-05-19T04:45:53;11.70;99.90
37446;DHT22;23307;51.136;14.942;2023-05-19T04:48:19;11.70;99.90
37446;DHT22;23307;51.136;14.942;2023-05-19T04:50:46;11.70;99.90
37446;DHT22;23307;51.136;14.942;2023-05-19T04:53:13;11.70;99.90
37446;DHT22;23307;51.136;14.942;2023-05-19T04:55:39;11.80;99.90
37446;DHT22;23307;51.136;14.942;2023-05-19T04:58:04;11.80;99.90
37446;DHT22;23307;51.136;14.942;2023-05-19T05:00:31;11.90;99.90
37446;DHT22;23307;51.136;14.942;2023-05-19T05:02:57;12.00;99.90
37446;DHT22;23307;51.136;14.942;2023-05-19T05:05:22;12.00;99.90
37446;DHT22;23307;51.136;14.942;2023-05-19T05:07:49;12.00;99.90
37446;DHT22;23307;51.136;14.942;2023-05-19T05:10:14;12.10;99.90
37446;DHT22;23307;51.136;14.942;2023-05-19T05:12:40;12.10;99.90
37446;DHT22;23307;51.136;14.942;2023-05-19T05:15:06;12.20;99.90
37446;DHT22;23307;51.136;14.942;2023-05-19T05:17:33;12.20;99.90
37446;DHT22;23307;51.136;14.942;2023-05-19T05:20:00;12.20;99.90
37446;DHT22;23307;51.136;14.942;2023-05-19T05:22:26;12.30;99.90
37446;DHT22;23307;51.136;14.942;2023-05-19T05:24:51;12.30;99.90
37446;DHT22;23307;51.136;14.942;2023-05-19T05:27:17;12.40;99.90
37446;DHT22;23307;51.136;14.942;2023-05-19T05:29:42;12.50;99.90
37446;DHT22;23307;51.136;14.942;2023-05-19T05:32:08;12.50;99.90
37446;DHT22;23307;51.136;14.942;2023-05-19T05:34:34;12.50;99.90
37446;DHT22;23307;51.136;14.942;2023-05-19T05:37:00;12.60;99.90
37446;DHT22;23307;51.136;14.942;2023-05-19T05:39:25;12.70;99.90
37446;DHT22;23307;51.136;14.942;2023-05-19T05:41:52;12.70;99.90
37446;DHT22;23307;51.136;14.942;2023-05-19T05:44:17;12.70;99.90
37446;DHT22;23307;51.136;14.942;2023-05-19T05:46:43;12.80;99.90
37446;DHT22;23307;51.136;14.942;2023-05-19T05:49:09;12.90;99.90
37446;DHT22;23307;51.136;14.942;2023-05-19T05:51:36;12.90;99.90
37446;DHT22;23307;51.136;14.942;2023-05-19T05:54:03;13.00;99.90
37446;DHT22;23307;51.136;14.942;2023-05-19T05:56:30;13.10;99.90
37446;DHT22;23307;51.136;14.942;2023-05-19T05:58:58;13.10;99.90
37446;DHT22;23307;51.136;14.942;2023-05-19T06:01:23;13.10;99.90
37446;DHT22;23307;51.136;14.942;2023-05-19T06:03:49;13.10;99.90
37446;DHT22;23307;51.136;14.942;2023-05-19T06:06:14;13.20;99.90
37446;DHT22;23307;51.136;14.942;2023-05-19T06:08:40;13.20;99.90
37446;DHT22;23307;51.136;14.942;2023-05-19T06:11:05;13.30;99.90
37446;DHT22;23307;51.136;14.942;2023-05-19T06:13:37;13.40;99.90
37446;DHT22;23307;51.136;14.942;2023-05-19T06:16:03;13.40;99.90
37446;DHT22;23307;51.136;14.942;2023-05-19T06:18:29;13.60;99.90
37446;DHT22;23307;51.136;14.942;2023-05-19T06:20:54;13.80;99.90
37446;DHT22;23307;51.136;14.942;2023-05-19T06:23:20;13.90;99.90
37446;DHT22;23307;51.136;14.942;2023-05-19T06:25:46;13.90;99.90
37446;DHT22;23307;51.136;14.942;2023-05-19T06:28:11;13.90;99.90
37446;DHT22;23307;51.136;14.942;2023-05-19T06:30:37;13.90;99.90
37446;DHT22;23307;51.136;14.942;2023-05-19T06:33:02;13.90;99.90
37446;DHT22;23307;51.136;14.942;2023-05-19T06:35:29;13.90;99.90
37446;DHT22;23307;51.136;14.942;2023-05-19T06:37:54;13.80;99.90
37446;DHT22;23307;51.136;14.942;2023-05-19T06:40:20;13.60;99.90
37446;DHT22;23307;51.136;14.942;2023-05-19T06:42:46;13.50;99.90
37446;DHT22;23307;51.136;14.942;2023-05-19T06:45:12;13.60;99.90
37446;DHT22;23307;51.136;14.942;2023-05-19T06:47:37;13.60;99.90
37446;DHT22;23307;51.136;14.942;2023-05-19T06:50:05;13.70;99.90
37446;DHT22;23307;51.136;14.942;2023-05-19T06:52:31;13.70;99.90
37446;DHT22;23307;51.136;14.942;2023-05-19T06:54:56;13.80;99.90
37446;DHT22;23307;51.136;14.942;2023-05-19T06:57:21;13.90;99.90
37446;DHT22;23307;51.136;14.942;2023-05-19T06:59:47;14.00;99.90
37446;DHT22;23307;51.136;14.942;2023-05-19T07:02:12;14.10;99.90
37446;DHT22;23307;51.136;14.942;2023-05-19T07:04:38;14.20;99.90
37446;DHT22;23307;51.136;14.942;2023-05-19T07:07:04;14.30;99.90
37446;DHT22;23307;51.136;14.942;2023-05-19T07:09:29;14.40;99.90
37446;DHT22;23307;51.136;14.942;2023-05-19T07:11:55;14.40;99.90
37446;DHT22;23307;51.136;14.942;2023-05-19T07:14:21;14.40;99.90
37446;DHT22;23307;51.136;14.942;2023-05-19T07:16:47;14.50;99.90
37446;DHT22;23307;51.136;14.942;2023-05-19T07:19:12;14.60;99.90
37446;DHT22;23307;51.136;14.942;2023-05-19T07:21:37;14.70;99.90
37446;DHT22;23307;51.136;14.942;2023-05-19T07:24:03;14.80;99.90
37446;DHT22;23307;51.136;14.942;2023-05-19T07:26:29;14.90;99.90
37446;DHT22;23307;51.136;14.942;2023-05-19T07:28:54;15.00;99.90
37446;DHT22;23307;51.136;14.942;2023-05-19T07:31:21;15.20;99.90
37446;DHT22;23307;51.136;14.942;2023-05-19T07:33:46;15.40;99.90
37446;DHT22;23307;51.136;14.942;2023-05-19T07:36:11;15.40;99.90
37446;DHT22;23307;51.136;14.942;2023-05-19T07:38:37;15.40;99.90
37446;DHT22;23307;51.136;14.942;2023-05-19T07:41:03;15.60;99.90
37446;DHT22;23307;51.136;14.942;2023-05-19T07:43:28;15.60;99.90
37446;DHT22;23307;51.136;14.942;2023-05-19T07:45:54;15.60;99.90
37446;DHT22;23307;51.136;14.942;2023-05-19T07:48:21;15.80;99.90
37446;DHT22;23307;51.136;14.942;2023-05-19T07:50:48;15.90;99.90
37446;DHT22;23307;51.136;14.942;2023-05-19T07:53:14;15.90;99.90
37446;DHT22;23307;51.136;14.942;2023-05-19T07:55:39;15.90;99.90
37446;DHT22;23307;51.136;14.942;2023-05-19T07:58:06;15.80;99.90
37446;DHT22;23307;51.136;14.942;2023-05-19T08:00:32;15.80;99.90
37446;DHT22;23307;51.136;14.942;2023-05-19T08:02:58;15.70;99.90
37446;DHT22;23307;51.136;14.942;2023-05-19T08:05:24;15.60;99.90
37446;DHT22;23307;51.136;14.942;2023-05-19T08:07:50;15.40;99.90
37446;DHT22;23307;51.136;14.942;2023-05-19T08:10:16;15.40;99.90
37446;DHT22;23307;51.136;14.942;2023-05-19T08:12:41;15.40;99.90
37446;DHT22;23307;51.136;14.942;2023-05-19T08:15:08;15.40;99.90
37446;DHT22;23307;51.136;14.942;2023-05-19T08:17:36;15.20;99.90
37446;DHT22;23307;51.136;14.942;2023-05-19T08:20:02;15.30;99.90
37446;DHT22;23307;51.136;14.942;2023-05-19T08:22:29;15.30;99.90
37446;DHT22;23307;51.136;14.942;2023-05-19T08:24:55;15.40;99.90
37446;DHT22;23307;51.136;14.942;2023-05-19T08:27:21;15.40;99.90
37446;DHT22;23307;51.136;14.942;2023-05-19T08:29:46;15.50;99.90
37446;DHT22;23307;51.136;14.942;2023-05-19T08:32:12;15.60;99.90
37446;DHT22;23307;51.136;14.942;2023-05-19T08:34:37;15.80;99.90
37446;DHT22;23307;51.136;14.942;2023-05-19T08:37:03;15.90;99.90
37446;DHT22;23307;51.136;14.942;2023-05-19T08:39:29;15.90;99.90
37446;DHT22;23307;51.136;14.942;2023-05-19T08:41:54;16.00;99.90
37446;DHT22;23307;51.136;14.942;2023-05-19T08:44:20;16.00;99.90
37446;DHT22;23307;51.136;14.942;2023-05-19T08:46:46;16.00;99.90
37446;DHT22;23307;51.136;14.942;2023-05-19T08:49:13;16.20;99.90
37446;DHT22;23307;51.136;14.942;2023-05-19T08:51:59;16.30;99.90
37446;DHT22;23307;51.136;14.942;2023-05-19T08:54:32;16.30;99.90
37446;DHT22;23307;51.136;14.942;2023-05-19T08:57:02;16.30;99.90
37446;DHT22;23307;51.136;14.942;2023-05-19T08:59:29;16.30;99.90
37446;DHT22;23307;51.136;14.942;2023-05-19T09:01:55;16.40;99.90
37446;DHT22;23307;51.136;14.942;2023-05-19T09:04:21;16.50;99.90
37446;DHT22;23307;51.136;14.942;2023-05-19T09:06:48;16.50;99.90
37446;DHT22;23307;51.136;14.942;2023-05-19T09:09:14;16.60;99.90
37446;DHT22;23307;51.136;14.942;2023-05-19T09:11:40;16.60;99.90
37446;DHT22;23307;51.136;14.942;2023-05-19T09:14:09;16.50;99.90
37446;DHT22;23307;51.136;14.942;2023-05-19T09:16:35;16.30;99.90
37446;DHT22;23307;51.136;14.942;2023-05-19T09:19:00;16.40;99.90
37446;DHT22;23307;51.136;14.942;2023-05-19T09:21:30;16.50;99.90
37446;DHT22;23307;51.136;14.942;2023-05-19T09:23:57;16.70;99.90
37446;DHT22;23307;51.136;14.942;2023-05-19T09:26:23;16.90;99.90
37446;DHT22;23307;51.136;14.942;2023-05-19T09:28:49;16.90;99.90
37446;DHT22;23307;51.136;14.942;2023-05-19T09:31:15;17.00;99.90
37446;DHT22;23307;51.136;14.942;2023-05-19T09:33:41;17.00;99.90
37446;DHT22;23307;51.136;14.942;2023-05-19T09:36:07;16.80;99.90
37446;DHT22;23307;51.136;14.942;2023-05-19T09:38:35;16.80;99.90
37446;DHT22;23307;51.136;14.942;2023-05-19T09:41:02;16.80;99.90
37446;DHT22;23307;51.136;14.942;2023-05-19T09:43:28;17.00;99.90
37446;DHT22;23307;51.136;14.942;2023-05-19T09:46:04;17.20;99.90
37446;DHT22;23307;51.136;14.942;2023-05-19T09:48:30;17.20;99.90
37446;DHT22;23307;51.136;14.942;2023-05-19T09:50:56;17.20;99.90
37446;DHT22;23307;51.136;14.942;2023-05-19T09:53:23;17.20;99.90
37446;DHT22;23307;51.136;14.942;2023-05-19T09:55:50;17.10;99.90
37446;DHT22;23307;51.136;14.942;2023-05-19T09:58:17;17.20;99.90
37446;DHT22;23307;51.136;14.942;2023-05-19T10:00:43;17.10;99.90
37446;DHT22;23307;51.136;14.942;2023-05-19T10:03:10;17.20;99.90
37446;DHT22;23307;51.136;14.942;2023-05-19T10:05:36;17.20;99.90
37446;DHT22;23307;51.136;14.942;2023-05-19T10:08:02;17.20;99.90
37446;DHT22;23307;51.136;14.942;2023-05-19T10:10:32;17.20;99.90
37446;DHT22;23307;51.136;14.942;2023-05-19T10:12:58;16.90;99.90
37446;DHT22;23307;51.136;14.942;2023-05-19T10:15:25;16.90;99.90
37446;DHT22;23307;51.136;14.942;2023-05-19T10:17:51;17.00;99.90
37446;DHT22;23307;51.136;14.942;2023-05-19T10:20:17;16.90;99.90
37446;DHT22;23307;51.136;14.942;2023-05-19T10:22:44;16.70;99.90
37446;DHT22;23307;51.136;14.942;2023-05-19T10:25:11;16.60;99.90
37446;DHT22;23307;51.136;14.942;2023-05-19T10:27:41;16.70;99.90
37446;DHT22;23307;51.136;14.942;2023-05-19T10:30:21;16.80;99.90
37446;DHT22;23307;51.136;14.942;2023-05-19T10:32:50;16.80;99.90
37446;DHT22;23307;51.136;14.942;2023-05-19T10:35:38;16.80;99.90
37446;DHT22;23307;51.136;14.942;2023-05-19T10:41:20;16.90;99.90
37446;DHT22;23307;51.136;14.942;2023-05-19T10:46:39;17.10;99.90
37446;DHT22;23307;51.136;14.942;2023-05-19T10:49:07;17.60;99.90
37446;DHT22;23307;51.136;14.942;2023-05-19T10:51:33;17.80;99.90
37446;DHT22;23307;51.136;14.942;2023-05-19T10:54:02;17.80;99.90
37446;DHT22;23307;51.136;14.942;2023-05-19T10:56:33;17.90;99.90
37446;DHT22;23307;51.136;14.942;2023-05-19T10:59:00;17.70;99.90
37446;DHT22;23307;51.136;14.942;2023-05-19T11:01:34;17.30;99.90
37446;DHT22;23307;51.136;14.942;2023-05-19T11:04:10;17.30;99.90
37446;DHT22;23307;51.136;14.942;2023-05-19T11:06:38;17.30;99.90
37446;DHT22;23307;51.136;14.942;2023-05-19T11:11:51;17.40;99.90
37446;DHT22;23307;51.136;14.942;2023-05-19T11:14:19;17.30;99.90
37446;DHT22;23307;51.136;14.942;2023-05-19T11:16:46;17.40;99.90
37446;DHT22;23307;51.136;14.942;2023-05-19T11:19:24;17.50;99.90
37446;DHT22;23307;51.136;14.942;2023-05-19T11:21:51;17.50;99.90
37446;DHT22;23307;51.136;14.942;2023-05-19T11:24:44;17.60;99.90
37446;DHT22;23307;51.136;14.942;2023-05-19T11:27:30;17.70;99.90
37446;DHT22;23307;51.136;14.942;2023-05-19T11:30:00;17.70;99.90
37446;DHT22;23307;51.136;14.942;2023-05-19T11:32:28;17.70;99.90
37446;DHT22;23307;51.136;14.942;2023-05-19T11:34:55;17.60;99.90
37446;DHT22;23307;51.136;14.942;2023-05-19T11:37:21;17.50;99.90
37446;DHT22;23307;51.136;14.942;2023-05-19T11:39:47;17.40;99.90
37446;DHT22;23307;51.136;14.942;2023-05-19T11:42:13;17.40;99.90
37446;DHT22;23307;51.136;14.942;2023-05-19T11:44:38;17.40;99.90
37446;DHT22;23307;51.136;14.942;2023-05-19T11:47:06;17.30;99.90
37446;DHT22;23307;51.136;14.942;2023-05-19T11:49:32;17.40;99.90
37446;DHT22;23307;51.136;14.942;2023-05-19T11:52:02;17.40;99.90
37446;DHT22;23307;51.136;14.942;2023-05-19T11:54:32;17.50;99.90
37446;DHT22;23307;51.136;14.942;2023-05-19T11:57:01;17.50;99.90
37446;DHT22;23307;51.136;14.942;2023-05-19T11:59:34;17.80;99.90
37446;DHT22;23307;51.136;14.942;2023-05-19T12:02:01;17.90;99.90
37446;DHT22;23307;51.136;14.942;2023-05-19T12:04:29;18.00;99.90
37446;DHT22;23307;51.136;14.942;2023-05-19T12:06:54;17.80;99.90
37446;DHT22;23307;51.136;14.942;2023-05-19T12:09:22;17.60;99.90
37446;DHT22;23307;51.136;14.942;2023-05-19T12:11:49;17.50;99.90
37446;DHT22;23307;51.136;14.942;2023-05-19T12:14:15;17.30;99.90
37446;DHT22;23307;51.136;14.942;2023-05-19T12:16:41;17.50;99.90
37446;DHT22;23307;51.136;14.942;2023-05-19T12:19:07;17.80;99.90
37446;DHT22;23307;51.136;14.942;2023-05-19T12:21:34;18.00;99.90
37446;DHT22;23307;51.136;14.942;2023-05-19T12:23:59;18.30;99.90
37446;DHT22;23307;51.136;14.942;2023-05-19T12:26:26;18.50;99.90
37446;DHT22;23307;51.136;14.942;2023-05-19T12:28:52;18.70;99.90
37446;DHT22;23307;51.136;14.942;2023-05-19T12:31:18;18.70;99.90
37446;DHT22;23307;51.136;14.942;2023-05-19T12:33:46;18.40;99.90
37446;DHT22;23307;51.136;14.942;2023-05-19T12:36:12;18.30;99.90
37446;DHT22;23307;51.136;14.942;2023-05-19T12:38:38;18.20;99.90
37446;DHT22;23307;51.136;14.942;2023-05-19T12:41:04;18.20;99.90
37446;DHT22;23307;51.136;14.942;2023-05-19T12:43:31;18.20;99.90
37446;DHT22;23307;51.136;14.942;2023-05-19T12:45:57;18.30;99.90
37446;DHT22;23307;51.136;14.942;2023-05-19T12:48:23;18.40;99.90
37446;DHT22;23307;51.136;14.942;2023-05-19T12:50:50;18.50;99.90
37446;DHT22;23307;51.136;14.942;2023-05-19T12:53:16;18.60;99.90
37446;DHT22;23307;51.136;14.942;2023-05-19T12:55:43;18.70;99.90
37446;DHT22;23307;51.136;14.942;2023-05-19T12:58:10;18.60;99.90
37446;DHT22;23307;51.136;14.942;2023-05-19T13:00:40;18.50;99.90
37446;DHT22;23307;51.136;14.942;2023-05-19T13:03:07;18.50;99.90
37446;DHT22;23307;51.136;14.942;2023-05-19T13:05:40;18.60;99.90
37446;DHT22;23307;51.136;14.942;2023-05-19T13:08:15;18.80;99.90
37446;DHT22;23307;51.136;14.942;2023-05-19T13:10:43;18.80;99.90
37446;DHT22;23307;51.136;14.942;2023-05-19T13:13:09;18.70;99.90
37446;DHT22;23307;51.136;14.942;2023-05-19T13:15:43;18.80;99.90
37446;DHT22;23307;51.136;14.942;2023-05-19T13:18:11;18.90;99.90
37446;DHT22;23307;51.136;14.942;2023-05-19T13:20:38;18.80;99.90
37446;DHT22;23307;51.136;14.942;2023-05-19T13:23:04;18.60;99.90
37446;DHT22;23307;51.136;14.942;2023-05-19T13:25:31;18.40;99.90
37446;DHT22;23307;51.136;14.942;2023-05-19T13:27:58;18.20;99.90
37446;DHT22;23307;51.136;14.942;2023-05-19T13:30:26;18.10;99.90
37446;DHT22;23307;51.136;14.942;2023-05-19T13:32:51;17.80;99.90
37446;DHT22;23307;51.136;14.942;2023-05-19T13:35:17;17.60;99.90
37446;DHT22;23307;51.136;14.942;2023-05-19T13:37:42;17.50;99.90
37446;DHT22;23307;51.136;14.942;2023-05-19T13:40:08;17.40;99.90
37446;DHT22;23307;51.136;14.942;2023-05-19T13:42:34;17.40;99.90
37446;DHT22;23307;51.136;14.942;2023-05-19T13:45:00;17.40;99.90
37446;DHT22;23307;51.136;14.942;2023-05-19T13:47:26;17.40;99.90
37446;DHT22;23307;51.136;14.942;2023-05-19T13:49:52;17.30;99.90
37446;DHT22;23307;51.136;14.942;2023-05-19T13:52:19;17.20;99.90
37446;DHT22;23307;51.136;14.942;2023-05-19T13:54:45;17.20;99.90
37446;DHT22;23307;51.136;14.942;2023-05-19T13:57:11;17.10;99.90
37446;DHT22;23307;51.136;14.942;2023-05-19T13:59:36;17.10;99.90
37446;DHT22;23307;51.136;14.942;2023-05-19T14:02:02;17.10;99.90
37446;DHT22;23307;51.136;14.942;2023-05-19T14:04:27;17.20;99.90
37446;DHT22;23307;51.136;14.942;2023-05-19T14:06:53;17.30;99.90
37446;DHT22;23307;51.136;14.942;2023-05-19T14:09:19;17.40;99.90
37446;DHT22;23307;51.136;14.942;2023-05-19T14:11:46;17.50;99.90
37446;DHT22;23307;51.136;14.942;2023-05-19T14:14:11;17.50;99.90
37446;DHT22;23307;51.136;14.942;2023-05-19T14:16:37;17.50;99.90
37446;DHT22;23307;51.136;14.942;2023-05-19T14:19:02;17.50;99.90
37446;DHT22;23307;51.136;14.942;2023-05-19T14:21:28;17.60;99.90
37446;DHT22;23307;51.136;14.942;2023-05-19T14:23:54;17.60;99.90
37446;DHT22;23307;51.136;14.942;2023-05-19T14:26:19;17.50;99.90
37446;DHT22;23307;51.136;14.942;2023-05-19T14:28:46;17.60;99.90
37446;DHT22;23307;51.136;14.942;2023-05-19T14:31:12;17.70;99.90
37446;DHT22;23307;51.136;14.942;2023-05-19T14:33:38;17.70;99.90
37446;DHT22;23307;51.136;14.942;2023-05-19T14:36:04;17.70;99.90
37446;DHT22;23307;51.136;14.942;2023-05-19T14:38:30;17.70;99.90
37446;DHT22;23307;51.136;14.942;2023-05-19T14:40:56;17.70;99.90
37446;DHT22;23307;51.136;14.942;2023-05-19T14:43:21;17.70;99.90
37446;DHT22;23307;51.136;14.942;2023-05-19T14:45:47;17.70;99.90
37446;DHT22;23307;51.136;14.942;2023-05-19T14:48:13;17.70;99.90
37446;DHT22;23307;51.136;14.942;2023-05-19T14:50:38;17.80;99.90
37446;DHT22;23307;51.136;14.942;2023-05-19T14:53:04;17.80;99.90
37446;DHT22;23307;51.136;14.942;2023-05-19T14:55:30;17.80;99.90
37446;DHT22;23307;51.136;14.942;2023-05-19T14:57:55;17.70;99.90
37446;DHT22;23307;51.136;14.942;2023-05-19T15:00:21;17.50;99.90
37446;DHT22;23307;51.136;14.942;2023-05-19T15:02:46;17.50;99.90
37446;DHT22;23307;51.136;14.942;2023-05-19T15:05:13;17.40;99.90
37446;DHT22;23307;51.136;14.942;2023-05-19T15:07:39;17.40;99.90
37446;DHT22;23307;51.136;14.942;2023-05-19T15:10:05;17.30;99.90
37446;DHT22;23307;51.136;14.942;2023-05-19T15:12:31;17.30;99.90
37446;DHT22;23307;51.136;14.942;2023-05-19T15:14:56;17.40;99.90
37446;DHT22;23307;51.136;14.942;2023-05-19T15:17:21;17.40;99.90
37446;DHT22;23307;51.136;14.942;2023-05-19T15:19:47;17.40;99.90
37446;DHT22;23307;51.136;14.942;2023-05-19T15:22:12;17.30;99.90
37446;DHT22;23307;51.136;14.942;2023-05-19T15:24:38;17.30;99.90
37446;DHT22;23307;51.136;14.942;2023-05-19T15:27:06;17.20;99.90
37446;DHT22;23307;51.136;14.942;2023-05-19T15:29:31;17.10;99.90
37446;DHT22;23307;51.136;14.942;2023-05-19T15:31:57;17.00;99.90
37446;DHT22;23307;51.136;14.942;2023-05-19T15:34:22;17.00;99.90
37446;DHT22;23307;51.136;14.942;2023-05-19T15:36:48;16.90;99.90
37446;DHT22;23307;51.136;14.942;2023-05-19T15:39:13;16.80;99.90